createdAt,value
2018-11-07T00:00:03.048Z,95027.62
2018-11-07T00:02:32.169Z,95030.66
2018-11-07T00:05:01.242Z,95024.45
2018-11-07T00:07:30.315Z,95024.83
2018-11-07T00:09:59.378Z,95025.24
2018-11-07T00:12:28.460Z,95025.26
2018-11-07T00:14:57.509Z,95021.59
2018-11-07T00:17:26.556Z,95013.72
2018-11-07T00:19:55.666Z,95013.81
2018-11-07T00:22:24.753Z,95015.56
2018-11-07T00:24:53.805Z,95016.19
2018-11-07T00:27:22.896Z,95018.83
2018-11-07T00:29:52.015Z,95010.14
2018-11-07T00:32:21.089Z,95014.58
2018-11-07T00:34:50.181Z,95014.88
2018-11-07T00:39:54.935Z,95016.09
2018-11-07T00:44:59.695Z,95011.88
2018-11-07T00:47:28.752Z,95012.81
2018-11-07T00:49:57.817Z,95014.65
2018-11-07T00:55:02.682Z,95023.08
2018-11-07T01:00:07.545Z,95008.55
2018-11-07T01:02:37.565Z,95005.75
2018-11-07T01:05:06.642Z,95007.23
2018-11-07T01:07:35.688Z,95004.09
2018-11-07T01:10:04.755Z,95008.60
2018-11-07T01:12:33.809Z,95008.08
2018-11-07T01:15:02.936Z,95013.66
2018-11-07T01:17:31.989Z,95006.80
2018-11-07T01:20:01.170Z,95003.41
2018-11-07T01:22:30.231Z,94995.02
2018-11-07T01:24:59.282Z,94996.11
2018-11-07T01:27:28.397Z,95006.16
2018-11-07T01:32:33.146Z,94996.91
2018-11-07T01:37:37.892Z,94991.53
2018-11-07T01:40:06.947Z,94987.31
2018-11-07T01:42:36.001Z,94987.03
2018-11-07T01:45:05.052Z,94983.16
2018-11-07T01:47:34.106Z,94981.62
2018-11-07T01:50:03.153Z,94979.94
2018-11-07T01:52:33.191Z,94979.58
2018-11-07T01:55:02.290Z,94970.09
2018-11-07T01:57:31.309Z,94971.73
2018-11-07T02:00:00.371Z,94974.68
2018-11-07T02:02:29.404Z,94968.20
2018-11-07T02:04:58.456Z,94973.20
2018-11-07T02:07:27.505Z,94979.94
2018-11-07T02:12:32.293Z,94982.38
2018-11-07T02:15:01.323Z,94977.53
2018-11-07T02:17:30.387Z,94974.36
2018-11-07T02:22:35.199Z,94982.95
2018-11-07T02:27:39.970Z,94986.25
2018-11-07T02:30:09.005Z,94983.48
2018-11-07T02:32:38.057Z,94977.24
2018-11-07T02:35:08.211Z,94979.55
2018-11-07T02:37:37.257Z,94976.50
2018-11-07T02:40:06.320Z,94976.69
2018-11-07T02:42:35.381Z,94970.48
2018-11-07T02:45:04.435Z,94970.92
2018-11-07T02:47:33.489Z,94966.76
2018-11-07T02:50:04.465Z,94970.20
2018-11-07T02:52:33.516Z,94968.83
2018-11-07T02:55:02.570Z,94966.02
2018-11-07T02:57:31.647Z,94962.64
2018-11-07T03:02:36.450Z,94960.63
2018-11-07T03:05:05.505Z,94966.97
2018-11-07T03:07:34.543Z,94959.38
2018-11-07T03:14:09.427Z,94955.81
2018-11-07T03:16:38.453Z,94951.83
2018-11-07T03:21:43.209Z,94943.72
2018-11-07T03:29:24.621Z,94940.01
2018-11-07T03:34:29.426Z,94935.80
2018-11-07T03:36:58.473Z,94937.14
2018-11-07T03:39:27.538Z,94938.14
2018-11-07T03:41:56.597Z,94945.97
2018-11-07T03:44:25.753Z,94948.01
2018-11-07T03:46:54.797Z,94947.83
2018-11-07T03:49:23.858Z,94942.67
2018-11-07T03:51:52.909Z,94937.25
2018-11-07T03:57:00.236Z,94935.41
2018-11-07T03:59:29.284Z,94937.58
2018-11-07T04:01:58.340Z,94943.78
2018-11-07T04:04:27.397Z,94945.02
2018-11-07T04:06:56.489Z,94941.59
2018-11-07T04:09:25.567Z,94935.98
2018-11-07T04:11:54.632Z,94931.37
2018-11-07T04:14:24.561Z,94934.35
2018-11-07T04:16:53.623Z,94934.66
2018-11-07T04:19:24.605Z,94935.62
2018-11-07T04:21:53.651Z,94932.02
2018-11-07T04:24:22.696Z,94923.23
2018-11-07T04:26:53.738Z,94923.55
2018-11-07T04:29:23.756Z,94932.55
2018-11-07T04:31:52.957Z,94937.58
2018-11-07T04:34:22.013Z,94924.20
2018-11-07T04:36:51.071Z,94914.89
2018-11-07T04:39:20.134Z,94915.05
2018-11-07T04:41:49.188Z,94921.36
2018-11-07T04:44:19.163Z,94923.95
2018-11-07T04:46:48.207Z,94917.87
2018-11-07T04:49:17.261Z,94912.64
2018-11-07T04:51:48.302Z,94908.53
2018-11-07T04:56:53.069Z,94914.70
2018-11-07T05:01:57.857Z,94921.08
2018-11-07T05:04:26.893Z,94914.73
2018-11-07T05:06:55.961Z,94913.67
2018-11-07T05:09:25.010Z,94917.48
2018-11-07T05:11:54.097Z,94911.82
2018-11-07T05:14:23.133Z,94907.48
2018-11-07T05:16:52.245Z,94906.13
2018-11-07T05:19:21.307Z,94911.98
2018-11-07T05:21:50.358Z,94917.80
2018-11-07T05:24:19.412Z,94925.75
2018-11-07T05:26:48.477Z,94928.27
2018-11-07T05:29:17.520Z,94928.36
2018-11-07T05:31:46.694Z,94924.28
2018-11-07T05:36:51.397Z,94928.11
2018-11-07T05:39:20.449Z,94924.11
2018-11-07T05:41:49.497Z,94924.80
2018-11-07T05:44:18.565Z,94925.50
2018-11-07T05:46:47.629Z,94918.52
2018-11-07T05:51:52.453Z,94912.59
2018-11-07T05:54:21.501Z,94914.45
2018-11-07T05:56:58.213Z,94914.08
2018-11-07T05:59:43.341Z,94920.70
2018-11-07T06:02:22.257Z,94930.48
2018-11-07T06:05:02.232Z,94934.65
2018-11-07T06:07:31.459Z,94938.86
2018-11-07T06:10:00.661Z,94939.34
2018-11-07T06:12:29.689Z,94940.41
2018-11-07T06:14:58.741Z,94946.39
2018-11-07T06:17:27.793Z,94947.70
2018-11-07T06:22:32.609Z,94956.69
2018-11-07T06:25:01.830Z,94951.41
2018-11-07T06:27:30.777Z,94949.50
2018-11-07T06:30:01.794Z,94948.97
2018-11-07T06:32:30.835Z,94948.51
2018-11-07T06:34:59.897Z,94955.61
2018-11-07T06:37:28.934Z,94957.41
2018-11-07T06:39:58.896Z,94955.91
2018-11-07T06:42:27.948Z,94945.13
2018-11-07T06:44:56.997Z,94945.08
2018-11-07T06:47:26.249Z,94954.21
2018-11-07T06:49:55.315Z,94961.54
2018-11-07T06:52:24.445Z,94957.68
2018-11-07T06:54:53.517Z,94952.19
2018-11-07T06:57:22.565Z,94950.80
2018-11-07T06:59:51.630Z,94952.84
2018-11-07T07:02:20.713Z,94953.70
2018-11-07T07:04:53.276Z,94957.59
2018-11-07T07:09:59.050Z,94960.00
2018-11-07T07:12:28.184Z,94958.16
2018-11-07T07:14:57.231Z,94952.51
2018-11-07T07:17:26.317Z,94952.00
2018-11-07T07:19:55.351Z,94959.34
2018-11-07T07:22:24.407Z,94959.42
2018-11-07T07:27:29.163Z,94960.07
2018-11-07T07:29:58.271Z,94957.41
2018-11-07T07:32:27.260Z,94953.80
2018-11-07T07:34:56.329Z,94954.24
2018-11-07T07:37:27.367Z,94953.35
2018-11-07T07:39:56.416Z,94948.80
2018-11-07T07:42:25.461Z,94954.68
2018-11-07T07:44:55.018Z,94954.78
2018-11-07T07:49:59.792Z,94952.39
2018-11-07T07:52:29.088Z,94948.52
2018-11-07T07:54:58.200Z,94946.10
2018-11-07T07:57:27.335Z,94943.48
2018-11-07T07:59:56.392Z,94946.83
2018-11-07T08:02:25.452Z,94942.98
2018-11-07T08:04:54.651Z,94944.41
2018-11-07T08:07:23.664Z,94943.59
2018-11-07T08:09:52.770Z,94944.64
2018-11-07T08:12:21.838Z,94947.07
2018-11-07T08:14:50.943Z,94956.73
2018-11-07T08:17:21.932Z,94947.25
2018-11-07T08:19:50.981Z,94943.31
2018-11-07T08:22:20.080Z,94944.10
2018-11-07T08:24:49.126Z,94952.37
2018-11-07T08:29:54.990Z,94953.05
2018-11-07T08:34:59.305Z,94944.09
2018-11-07T08:37:28.591Z,94939.66
2018-11-07T08:39:57.615Z,94944.90
2018-11-07T08:42:27.271Z,94942.31
2018-11-07T08:44:56.217Z,94940.80
2018-11-07T08:47:28.436Z,94940.52
2018-11-07T08:49:57.693Z,94942.40
2018-11-07T08:52:26.745Z,94939.92
2018-11-07T08:54:55.854Z,94939.02
2018-11-07T08:57:26.786Z,94938.16
2018-11-07T08:59:55.837Z,94937.15
2018-11-07T09:02:24.920Z,94936.02
2018-11-07T09:04:53.960Z,94931.70
2018-11-07T09:09:59.772Z,94929.76
2018-11-07T09:15:04.653Z,94924.95
2018-11-07T09:17:37.087Z,94926.69
2018-11-07T09:20:06.248Z,94929.84
2018-11-07T09:25:11.000Z,94919.98
2018-11-07T09:27:40.132Z,94923.94
2018-11-07T09:30:09.417Z,94916.45
2018-11-07T09:32:38.499Z,94916.84
2018-11-07T09:37:43.371Z,94917.30
2018-11-07T09:40:14.683Z,94911.94
2018-11-07T09:42:43.722Z,94906.19
2018-11-07T09:45:12.783Z,94904.67
2018-11-07T09:47:41.846Z,94896.42
2018-11-07T09:50:10.917Z,94902.31
2018-11-07T09:52:39.976Z,94899.55
2018-11-07T09:55:09.251Z,94906.94
2018-11-07T09:57:38.338Z,94904.80
2018-11-07T10:00:07.386Z,94910.00
2018-11-07T10:02:36.439Z,94903.63
2018-11-07T10:05:05.496Z,94904.17
2018-11-07T10:07:34.568Z,94901.41
2018-11-07T10:10:03.685Z,94890.46
2018-11-07T10:12:32.717Z,94893.06
2018-11-07T10:15:02.022Z,94898.67
2018-11-07T10:17:31.069Z,94903.83
2018-11-07T10:20:00.123Z,94905.33
2018-11-07T10:22:29.237Z,94908.89
2018-11-07T10:24:58.302Z,94900.73
2018-11-07T10:27:27.726Z,94888.63
2018-11-07T10:29:56.811Z,94885.97
2018-11-07T10:32:25.569Z,94873.02
2018-11-07T10:34:54.623Z,94866.36
2018-11-07T10:37:32.258Z,94863.77
2018-11-07T10:39:52.802Z,94871.01
2018-11-07T10:42:21.826Z,94865.47
2018-11-07T10:44:50.871Z,94863.98
2018-11-07T10:49:55.770Z,94875.05
2018-11-07T10:52:29.094Z,94871.48
2018-11-07T10:54:58.150Z,94866.16
2018-11-07T11:00:03.064Z,94854.88
2018-11-07T11:05:08.018Z,94849.11
2018-11-07T11:10:12.897Z,94843.08
2018-11-07T11:12:41.928Z,94842.38
2018-11-07T11:15:10.979Z,94841.87
2018-11-07T11:17:40.038Z,94838.08
2018-11-07T11:20:10.099Z,94837.31
2018-11-07T11:22:39.160Z,94842.62
2018-11-07T11:25:08.202Z,94841.98
2018-11-07T11:27:37.517Z,94840.08
2018-11-07T11:30:07.357Z,94847.10
2018-11-07T11:32:36.405Z,94834.68
2018-11-07T11:37:41.257Z,94825.14
2018-11-07T11:42:46.114Z,94829.34
2018-11-07T11:47:51.118Z,94827.04
2018-11-07T11:50:20.176Z,94827.50
2018-11-07T11:52:49.204Z,94828.60
2018-11-07T11:57:54.120Z,94829.18
2018-11-07T12:00:23.181Z,94826.28
2018-11-07T12:02:53.177Z,94827.91
2018-11-07T12:05:22.237Z,94826.39
2018-11-07T12:07:51.285Z,94822.73
2018-11-07T12:10:20.340Z,94826.25
2018-11-07T12:12:49.457Z,94826.70
2018-11-07T12:15:18.518Z,94815.57
2018-11-07T12:17:48.542Z,94814.68
2018-11-07T12:20:17.759Z,94816.66
2018-11-07T12:22:46.809Z,94821.95
2018-11-07T12:27:51.726Z,94824.94
2018-11-07T12:32:56.549Z,94829.77
2018-11-07T12:35:26.941Z,94826.17
2018-11-07T12:37:55.990Z,94819.00
2018-11-07T12:40:26.054Z,94819.66
2018-11-07T12:42:55.189Z,94819.05
2018-11-07T12:45:24.177Z,94822.55
2018-11-07T12:47:53.216Z,94820.22
2018-11-07T12:50:22.354Z,94820.41
2018-11-07T12:52:51.373Z,94820.42
2018-11-07T12:55:20.451Z,94824.86
2018-11-07T12:57:49.611Z,94824.52
2018-11-07T13:00:18.602Z,94823.63
2018-11-07T13:02:48.744Z,94826.31
2018-11-07T13:05:17.722Z,94826.17
2018-11-07T13:07:46.772Z,94831.28
2018-11-07T13:10:15.824Z,94832.91
2018-11-07T13:12:44.914Z,94834.52
2018-11-07T13:15:13.981Z,94831.86
2018-11-07T13:17:43.045Z,94825.45
2018-11-07T13:20:12.094Z,94823.52
2018-11-07T13:22:41.265Z,94817.41
2018-11-07T13:27:46.086Z,94817.12
2018-11-07T13:32:50.972Z,94813.45
2018-11-07T13:35:20.038Z,94816.30
2018-11-07T13:37:49.225Z,94816.13
2018-11-07T13:40:19.130Z,94819.00
2018-11-07T13:42:48.187Z,94826.81
2018-11-07T13:47:53.081Z,94834.07
2018-11-07T13:50:22.313Z,94836.99
2018-11-07T13:52:51.355Z,94835.83
2018-11-07T13:55:21.349Z,94834.45
2018-11-07T13:57:50.465Z,94840.54
2018-11-07T14:02:55.369Z,94830.43
2018-11-07T14:05:24.505Z,94836.31
2018-11-07T14:07:53.505Z,94837.97
2018-11-07T14:10:22.572Z,94833.94
2018-11-07T14:12:51.619Z,94832.37
2018-11-07T14:15:20.690Z,94834.34
2018-11-07T14:17:49.755Z,94836.53
2018-11-07T14:20:18.823Z,94836.88
2018-11-07T14:22:47.990Z,94845.79
2018-11-07T14:25:17.089Z,94849.16
2018-11-07T14:27:46.360Z,94842.14
2018-11-07T14:30:15.263Z,94839.83
2018-11-07T14:32:44.322Z,94839.80
2018-11-07T14:35:13.425Z,94844.97
2018-11-07T14:37:42.530Z,94842.98
2018-11-07T14:40:11.577Z,94846.20
2018-11-07T14:42:40.651Z,94849.63
2018-11-07T14:45:09.769Z,94849.43
2018-11-07T14:47:39.758Z,94860.28
2018-11-07T14:50:08.874Z,94860.33
2018-11-07T14:52:37.984Z,94864.44
2018-11-07T14:57:43.139Z,94861.92
2018-11-07T15:00:12.193Z,94859.80
2018-11-07T15:02:41.385Z,94860.59
2018-11-07T15:05:10.374Z,94861.84
2018-11-07T15:10:15.173Z,94871.77
2018-11-07T15:12:44.223Z,94873.83
2018-11-07T15:15:14.270Z,94873.66
2018-11-07T15:17:43.336Z,94875.97
2018-11-07T15:20:12.395Z,94885.64
2018-11-07T15:22:41.540Z,94891.67
2018-11-07T15:25:10.735Z,94888.17
2018-11-07T15:27:39.889Z,94882.97
2018-11-07T15:30:09.872Z,94886.92
2018-11-07T15:32:38.975Z,94891.54
2018-11-07T15:35:08.054Z,94897.12
2018-11-07T15:37:37.106Z,94902.33
2018-11-07T15:40:06.175Z,94904.13
2018-11-07T15:42:35.228Z,94912.92
2018-11-07T15:45:04.305Z,94917.22
2018-11-07T15:47:33.359Z,94922.91
2018-11-07T15:50:02.413Z,94926.92
2018-11-07T15:52:31.515Z,94938.66
2018-11-07T15:55:00.553Z,94941.94
2018-11-07T15:57:30.579Z,94945.23
2018-11-07T15:59:59.841Z,94948.43
2018-11-07T16:02:28.800Z,94942.02
2018-11-07T16:04:57.863Z,94939.56
2018-11-07T16:07:26.930Z,94948.47
2018-11-07T16:09:56.011Z,94956.05
2018-11-07T16:12:25.033Z,94965.00
2018-11-07T16:14:54.096Z,94970.20
2018-11-07T16:17:23.150Z,94971.50
2018-11-07T16:19:52.217Z,94970.25
2018-11-07T16:22:21.264Z,94974.30
2018-11-07T16:24:50.313Z,94978.34
2018-11-07T16:27:19.377Z,94990.42
2018-11-07T16:29:48.439Z,94991.64
2018-11-07T16:32:17.586Z,94993.22
2018-11-07T16:34:46.676Z,94999.89
2018-11-07T16:37:15.718Z,95011.69
2018-11-07T16:39:44.777Z,95011.77
2018-11-07T16:42:13.821Z,95016.50
2018-11-07T16:44:42.873Z,95028.74
2018-11-07T16:47:12.112Z,95030.70
2018-11-07T16:49:41.025Z,95034.11
2018-11-07T16:54:45.941Z,95045.78
2018-11-07T16:57:15.022Z,95046.11
2018-11-07T16:59:44.091Z,95052.75
2018-11-07T17:02:13.137Z,95063.38
2018-11-07T17:04:42.243Z,95066.53
2018-11-07T17:07:12.249Z,95069.77
2018-11-07T17:09:41.333Z,95077.83
2018-11-07T17:12:10.384Z,95079.11
2018-11-07T17:14:39.418Z,95086.33
2018-11-07T17:19:45.138Z,95091.87
2018-11-07T17:22:14.203Z,95095.82
2018-11-07T17:24:43.266Z,95109.97
2018-11-07T17:27:13.380Z,95105.23
2018-11-07T17:29:42.376Z,95112.70
2018-11-07T17:32:11.438Z,95112.19
2018-11-07T17:34:40.501Z,95123.34
2018-11-07T17:37:10.576Z,95126.09
2018-11-07T17:39:39.596Z,95125.95
2018-11-07T17:42:08.653Z,95133.81
2018-11-07T17:44:37.701Z,95125.61
2018-11-07T17:47:07.762Z,95128.41
2018-11-07T17:49:36.825Z,95140.22
2018-11-07T17:52:06.109Z,95143.40
2018-11-07T17:54:35.152Z,95134.78
2018-11-07T17:57:04.305Z,95123.96
2018-11-07T18:02:09.101Z,95134.97
2018-11-07T18:07:13.963Z,95146.61
2018-11-07T18:09:43.057Z,95144.92
2018-11-07T18:12:12.163Z,95145.61
2018-11-07T18:14:41.210Z,95145.83
2018-11-07T18:17:11.260Z,95154.83
2018-11-07T18:19:40.317Z,95156.78
2018-11-07T18:24:45.569Z,95160.26
2018-11-07T18:27:15.609Z,95164.64
2018-11-07T18:29:44.607Z,95164.03
2018-11-07T18:32:13.701Z,95166.95
2018-11-07T18:34:52.511Z,95178.77
2018-11-07T18:37:22.182Z,95182.80
2018-11-07T18:39:51.230Z,95183.59
2018-11-07T18:44:55.971Z,95197.57
2018-11-07T18:50:01.832Z,95196.61
2018-11-07T18:52:31.735Z,95209.75
2018-11-07T18:55:00.794Z,95208.89
2018-11-07T18:57:29.893Z,95215.37
2018-11-07T18:59:58.933Z,95218.23
2018-11-07T19:02:27.997Z,95224.33
2018-11-07T19:04:57.118Z,95232.48
2018-11-07T19:10:02.891Z,95236.82
2018-11-07T19:12:32.002Z,95243.64
2018-11-07T19:15:00.994Z,95244.74
2018-11-07T19:17:30.042Z,95249.41
2018-11-07T19:20:01.021Z,95253.42
2018-11-07T19:22:30.081Z,95254.64
2018-11-07T19:24:59.131Z,95254.45
2018-11-07T19:27:28.194Z,95259.82
2018-11-07T19:29:57.242Z,95259.25
2018-11-07T19:32:26.428Z,95257.53
2018-11-07T19:34:55.501Z,95266.01
2018-11-07T19:37:24.571Z,95267.63
2018-11-07T19:39:53.637Z,95266.34
2018-11-07T19:44:58.458Z,95271.12
2018-11-07T19:50:04.328Z,95277.66
2018-11-07T19:52:33.391Z,95281.10
2018-11-07T19:55:03.398Z,95282.65
2018-11-07T19:57:32.524Z,95290.47
2018-11-07T20:00:01.575Z,95293.50
2018-11-07T20:02:30.681Z,95293.28
2018-11-07T20:05:01.775Z,95299.70
2018-11-07T20:07:30.877Z,95302.34
2018-11-07T20:10:01.931Z,95304.30
2018-11-07T20:15:06.722Z,95317.51
2018-11-07T20:17:37.785Z,95322.92
2018-11-07T20:20:06.975Z,95326.23
2018-11-07T20:22:36.012Z,95331.50
2018-11-07T20:25:07.007Z,95333.09
2018-11-07T20:27:36.078Z,95336.58
2018-11-07T20:30:07.146Z,95342.28
2018-11-07T20:32:36.220Z,95352.59
2018-11-07T20:35:05.277Z,95347.01
2018-11-07T20:37:38.379Z,95348.46
2018-11-07T20:40:07.516Z,95350.33
2018-11-07T20:42:36.546Z,95355.23
2018-11-07T20:45:05.624Z,95356.01
2018-11-07T20:47:34.693Z,95352.00
2018-11-07T20:50:03.754Z,95357.19
2018-11-07T20:52:32.888Z,95357.24
2018-11-07T20:55:02.284Z,95361.24
2018-11-07T20:57:31.284Z,95364.97
2018-11-07T21:02:36.026Z,95364.89
2018-11-07T21:07:40.772Z,95380.00
2018-11-07T21:10:11.792Z,95379.64
2018-11-07T21:12:40.821Z,95386.32
2018-11-07T21:15:09.886Z,95381.48
2018-11-07T21:17:38.981Z,95387.25
2018-11-07T21:20:08.017Z,95387.40
2018-11-07T21:22:37.065Z,95389.60
2018-11-07T21:25:06.182Z,95392.30
2018-11-07T21:27:35.282Z,95391.56
2018-11-07T21:30:04.385Z,95393.87
2018-11-07T21:32:33.451Z,95397.83
2018-11-07T21:35:02.662Z,95404.20
2018-11-07T21:37:31.679Z,95402.58
2018-11-07T21:40:00.717Z,95404.70
2018-11-07T21:42:29.774Z,95405.20
2018-11-07T21:44:58.905Z,95399.53
2018-11-07T21:47:41.643Z,95401.79
2018-11-07T21:52:46.991Z,95400.13
2018-11-07T21:55:16.033Z,95404.32
2018-11-07T21:57:46.978Z,95407.24
2018-11-07T22:00:16.039Z,95405.39
2018-11-07T22:02:45.096Z,95406.24
2018-11-07T22:05:14.113Z,95410.18
2018-11-07T22:07:43.173Z,95413.61
2018-11-07T22:10:12.226Z,95418.63
2018-11-07T22:12:41.283Z,95417.94
2018-11-07T22:15:10.324Z,95424.31
2018-11-07T22:17:43.552Z,95433.80
2018-11-07T22:20:12.597Z,95436.88
2018-11-07T22:22:41.649Z,95439.48
2018-11-07T22:25:10.699Z,95448.32
2018-11-07T22:27:39.747Z,95448.29
2018-11-07T22:30:08.822Z,95453.12
2018-11-07T22:32:38.285Z,95456.92
2018-11-07T22:35:07.336Z,95460.45
2018-11-07T22:37:36.404Z,95460.20
2018-11-07T22:40:05.753Z,95463.36
2018-11-07T22:42:34.802Z,95464.67
2018-11-07T22:45:03.858Z,95470.72
2018-11-07T22:47:32.900Z,95474.06
2018-11-07T22:50:01.989Z,95468.84
2018-11-07T22:52:31.028Z,95472.78
2018-11-07T22:55:00.178Z,95479.16
2018-11-07T23:00:05.209Z,95485.73
2018-11-07T23:02:34.294Z,95485.02
2018-11-07T23:05:03.366Z,95485.55
2018-11-07T23:07:36.018Z,95486.38
2018-11-07T23:10:05.049Z,95497.23
2018-11-07T23:15:09.845Z,95502.38
2018-11-07T23:17:38.914Z,95499.16
2018-11-07T23:20:08.121Z,95499.61
2018-11-07T23:22:37.174Z,95505.78
2018-11-07T23:25:06.227Z,95504.75
2018-11-07T23:27:35.285Z,95506.51
2018-11-07T23:30:05.272Z,95511.01
2018-11-07T23:32:34.332Z,95510.31
2018-11-07T23:35:03.452Z,95511.56
2018-11-07T23:37:32.528Z,95513.91
2018-11-07T23:40:01.594Z,95517.58
2018-11-07T23:42:30.653Z,95524.48
2018-11-07T23:47:35.580Z,95527.41
2018-11-07T23:50:04.709Z,95523.35
2018-11-07T23:52:33.773Z,95523.54
2018-11-07T23:55:02.879Z,95529.10
2018-11-07T23:57:32.887Z,95528.88
